createdAt,value
2018-07-30T00:00:25.440Z,16.46
2018-07-30T00:01:31.881Z,16.45
2018-07-30T00:02:38.324Z,16.43
2018-07-30T00:03:45.274Z,16.40
2018-07-30T00:04:51.212Z,16.38
2018-07-30T00:05:57.669Z,16.35
2018-07-30T00:07:04.093Z,16.34
2018-07-30T00:08:10.518Z,16.32
2018-07-30T00:09:17.458Z,16.32
2018-07-30T00:10:23.400Z,16.28
2018-07-30T00:11:29.846Z,16.24
2018-07-30T00:12:36.271Z,16.21
2018-07-30T00:13:42.707Z,16.19
2018-07-30T00:14:49.152Z,16.17
2018-07-30T00:15:57.074Z,16.17
2018-07-30T00:17:03.057Z,16.13
2018-07-30T00:18:08.670Z,16.10
2018-07-30T00:19:14.889Z,16.11
2018-07-30T00:20:21.342Z,16.12
2018-07-30T00:21:27.812Z,16.09
2018-07-30T00:22:34.195Z,16.05
2018-07-30T00:23:41.076Z,16.05
2018-07-30T00:24:47.057Z,16.05
2018-07-30T00:25:53.473Z,16.02
2018-07-30T00:27:00.402Z,15.98
2018-07-30T00:28:06.340Z,16.00
2018-07-30T00:29:12.784Z,16.00
2018-07-30T00:30:19.706Z,16.00
2018-07-30T00:31:25.686Z,15.97
2018-07-30T00:32:32.058Z,15.93
2018-07-30T00:33:38.493Z,15.90
2018-07-30T00:34:44.926Z,15.86
2018-07-30T00:35:51.334Z,15.84
2018-07-30T00:36:57.783Z,15.82
2018-07-30T00:38:04.197Z,15.81
2018-07-30T00:39:10.624Z,15.82
2018-07-30T00:40:17.055Z,15.86
2018-07-30T00:41:23.477Z,15.89
2018-07-30T00:42:29.913Z,15.90
2018-07-30T00:43:36.328Z,15.91
2018-07-30T00:44:42.747Z,15.91
2018-07-30T00:45:49.171Z,15.89
2018-07-30T00:46:55.601Z,15.83
2018-07-30T00:48:02.529Z,15.78
2018-07-30T00:49:08.506Z,15.72
2018-07-30T00:50:14.873Z,15.68
2018-07-30T00:51:21.799Z,15.67
2018-07-30T00:52:27.726Z,15.66
2018-07-30T00:53:34.627Z,15.67
2018-07-30T00:54:40.560Z,15.67
2018-07-30T00:55:46.984Z,15.65
2018-07-30T00:56:53.502Z,15.65
2018-07-30T00:57:59.816Z,15.65
2018-07-30T00:59:06.254Z,15.68
2018-07-30T01:00:12.654Z,15.68
2018-07-30T01:01:19.076Z,15.70
2018-07-30T01:02:25.995Z,15.68
2018-07-30T01:03:31.916Z,15.66
2018-07-30T01:04:38.814Z,15.66
2018-07-30T01:05:44.755Z,15.66
2018-07-30T01:06:51.190Z,15.64
2018-07-30T01:07:57.620Z,15.61
2018-07-30T01:09:04.016Z,15.57
2018-07-30T01:10:10.434Z,15.56
2018-07-30T01:11:16.845Z,15.54
2018-07-30T01:12:23.276Z,15.58
2018-07-30T01:13:29.684Z,15.62
2018-07-30T01:14:36.099Z,15.63
2018-07-30T01:15:42.519Z,15.62
2018-07-30T01:16:49.438Z,15.57
2018-07-30T01:17:55.360Z,15.53
2018-07-30T01:19:01.770Z,15.48
2018-07-30T01:20:08.280Z,15.48
2018-07-30T01:21:14.603Z,15.45
2018-07-30T01:22:21.020Z,15.44
2018-07-30T01:23:27.424Z,15.41
2018-07-30T01:24:33.841Z,15.44
2018-07-30T01:25:40.246Z,15.43
2018-07-30T01:26:46.666Z,15.42
2018-07-30T01:27:53.084Z,15.40
2018-07-30T01:28:59.481Z,15.39
2018-07-30T01:30:05.896Z,15.34
2018-07-30T01:31:12.302Z,15.32
2018-07-30T01:32:19.226Z,15.28
2018-07-30T01:33:25.625Z,15.31
2018-07-30T01:34:31.530Z,15.29
2018-07-30T01:35:37.936Z,15.25
2018-07-30T01:36:44.352Z,15.27
2018-07-30T01:37:50.777Z,15.24
2018-07-30T01:38:57.188Z,15.20
2018-07-30T01:40:03.578Z,15.20
2018-07-30T01:41:10.483Z,15.20
2018-07-30T01:42:16.904Z,15.23
2018-07-30T01:43:22.805Z,15.25
2018-07-30T01:44:29.209Z,15.26
2018-07-30T01:45:42.568Z,15.27
2018-07-30T01:46:50.839Z,15.22
2018-07-30T01:47:56.763Z,15.20
2018-07-30T01:49:03.163Z,15.27
2018-07-30T01:50:09.560Z,15.29
2018-07-30T01:51:15.955Z,15.32
2018-07-30T01:52:22.366Z,15.30
2018-07-30T01:53:28.781Z,15.27
2018-07-30T01:54:35.167Z,15.23
2018-07-30T01:55:41.578Z,15.18
2018-07-30T01:56:48.927Z,15.15
2018-07-30T01:57:54.400Z,15.13
2018-07-30T01:59:00.803Z,15.07
2018-07-30T02:00:07.199Z,15.04
2018-07-30T02:01:13.591Z,15.02
2018-07-30T02:02:20.010Z,15.04
2018-07-30T02:03:26.411Z,15.03
2018-07-30T02:04:32.807Z,15.03
2018-07-30T02:05:39.709Z,15.03
2018-07-30T02:06:45.623Z,15.04
2018-07-30T02:07:52.018Z,15.05
2018-07-30T02:08:58.916Z,15.04
2018-07-30T02:10:04.826Z,15.00
2018-07-30T02:11:11.232Z,14.95
2018-07-30T02:12:17.627Z,14.88
2018-07-30T02:13:24.033Z,14.89
2018-07-30T02:14:30.426Z,14.92
2018-07-30T02:15:36.830Z,14.93
2018-07-30T02:16:43.232Z,14.93
2018-07-30T02:17:49.641Z,14.89
2018-07-30T02:18:57.037Z,14.88
2018-07-30T02:20:02.428Z,14.89
2018-07-30T02:21:08.826Z,14.89
2018-07-30T02:22:15.218Z,14.90
2018-07-30T02:23:22.564Z,14.87
2018-07-30T02:24:28.513Z,14.84
2018-07-30T02:25:34.408Z,14.93
2018-07-30T02:26:40.809Z,14.93
2018-07-30T02:27:47.214Z,14.90
2018-07-30T02:28:53.616Z,14.85
2018-07-30T02:30:00.017Z,14.82
2018-07-30T02:31:06.399Z,14.78
2018-07-30T02:32:12.797Z,14.81
2018-07-30T02:33:19.204Z,14.82
2018-07-30T02:34:25.600Z,14.79
2018-07-30T02:35:31.983Z,14.74
2018-07-30T02:36:38.382Z,14.73
2018-07-30T02:37:44.788Z,14.76
2018-07-30T02:38:51.185Z,14.75
2018-07-30T02:39:57.568Z,14.78
2018-07-30T02:41:03.963Z,14.80
2018-07-30T02:42:10.357Z,14.82
2018-07-30T02:43:16.764Z,14.85
2018-07-30T02:44:23.158Z,14.87
2018-07-30T02:45:29.559Z,14.93
2018-07-30T02:46:36.948Z,15.02
2018-07-30T02:47:42.352Z,15.13
2018-07-30T02:48:49.252Z,15.10
2018-07-30T02:49:55.134Z,15.03
2018-07-30T02:51:01.533Z,15.00
2018-07-30T02:52:07.926Z,14.96
2018-07-30T02:53:14.329Z,14.90
2018-07-30T02:54:21.201Z,14.90
2018-07-30T02:55:27.120Z,14.93
2018-07-30T02:56:33.506Z,14.98
2018-07-30T02:57:40.002Z,15.07
2018-07-30T02:58:46.297Z,15.06
2018-07-30T02:59:52.701Z,14.99
2018-07-30T03:00:59.579Z,14.94
2018-07-30T03:02:05.478Z,14.88
2018-07-30T03:03:12.382Z,14.81
2018-07-30T03:04:18.275Z,14.77
2018-07-30T03:05:25.146Z,14.76
2018-07-30T03:06:31.057Z,14.74
2018-07-30T03:07:37.447Z,14.69
2018-07-30T03:08:43.855Z,14.65
2018-07-30T03:09:50.230Z,14.61
2018-07-30T03:10:56.617Z,14.56
2018-07-30T03:12:03.511Z,14.51
2018-07-30T03:13:09.411Z,14.46
2018-07-30T03:14:15.797Z,14.45
2018-07-30T03:15:22.188Z,14.45
2018-07-30T03:16:29.582Z,14.43
2018-07-30T03:17:34.966Z,14.45
2018-07-30T03:18:41.366Z,14.49
2018-07-30T03:19:47.755Z,14.49
2018-07-30T03:20:54.137Z,14.49
2018-07-30T03:22:00.521Z,14.49
2018-07-30T03:23:06.920Z,14.48
2018-07-30T03:24:13.320Z,14.48
2018-07-30T03:25:19.689Z,14.45
2018-07-30T03:26:26.075Z,14.46
2018-07-30T03:27:32.466Z,14.41
2018-07-30T03:28:38.910Z,14.40
2018-07-30T03:29:45.248Z,14.39
2018-07-30T03:30:51.635Z,14.39
2018-07-30T03:31:58.029Z,14.38
2018-07-30T03:33:04.424Z,14.36
2018-07-30T03:34:10.793Z,14.35
2018-07-30T03:35:17.690Z,14.39
2018-07-30T03:36:23.576Z,14.40
2018-07-30T03:37:29.957Z,14.38
2018-07-30T03:38:36.357Z,14.36
2018-07-30T03:39:42.744Z,14.32
2018-07-30T03:40:49.131Z,14.31
2018-07-30T03:41:55.513Z,14.31
2018-07-30T03:43:01.901Z,14.33
2018-07-30T03:44:08.301Z,14.33
2018-07-30T03:45:14.702Z,14.31
2018-07-30T03:46:21.063Z,14.29
2018-07-30T03:47:27.442Z,14.26
2018-07-30T03:48:33.829Z,14.24
2018-07-30T03:49:40.212Z,14.20
2018-07-30T03:50:46.593Z,14.13
2018-07-30T03:51:52.974Z,14.08
2018-07-30T03:52:59.860Z,14.05
2018-07-30T03:54:05.754Z,14.02
2018-07-30T03:55:12.138Z,14.02
2018-07-30T03:56:18.515Z,14.02
2018-07-30T03:57:24.902Z,14.02
2018-07-30T03:58:31.290Z,14.03
2018-07-30T03:59:37.666Z,14.04
2018-07-30T04:00:44.048Z,14.06
2018-07-30T04:01:50.426Z,14.07
2018-07-30T04:02:56.815Z,14.07
2018-07-30T04:04:03.209Z,14.06
2018-07-30T04:05:09.567Z,14.07
2018-07-30T04:06:16.011Z,14.03
2018-07-30T04:07:22.349Z,14.05
2018-07-30T04:08:28.730Z,14.07
2018-07-30T04:09:35.106Z,14.04
2018-07-30T04:10:41.489Z,14.06
2018-07-30T04:11:47.867Z,14.06
2018-07-30T04:12:54.250Z,14.05
2018-07-30T04:14:00.640Z,14.04
2018-07-30T04:15:07.497Z,14.03
2018-07-30T04:16:13.393Z,14.04
2018-07-30T04:17:19.773Z,14.04
2018-07-30T04:18:26.153Z,14.05
2018-07-30T04:19:32.530Z,14.09
2018-07-30T04:20:38.906Z,14.15
2018-07-30T04:21:45.294Z,14.17
2018-07-30T04:22:51.684Z,14.20
2018-07-30T04:23:58.056Z,14.24
2018-07-30T04:25:04.439Z,14.25
2018-07-30T04:26:10.821Z,14.28
2018-07-30T04:27:17.699Z,14.34
2018-07-30T04:28:23.608Z,14.36
2018-07-30T04:29:29.970Z,14.42
2018-07-30T04:30:36.848Z,14.45
2018-07-30T04:31:42.749Z,14.45
2018-07-30T04:32:49.632Z,14.47
2018-07-30T04:33:55.532Z,14.49
2018-07-30T04:35:01.918Z,14.53
2018-07-30T04:36:08.321Z,14.58
2018-07-30T04:37:14.690Z,14.68
2018-07-30T04:38:21.079Z,14.80
2018-07-30T04:39:27.482Z,14.90
2018-07-30T04:40:33.861Z,15.02
2018-07-30T04:41:40.250Z,15.10
2018-07-30T04:42:46.639Z,15.12
2018-07-30T04:43:53.102Z,15.14
2018-07-30T04:44:59.454Z,15.17
2018-07-30T04:46:06.324Z,15.21
2018-07-30T04:47:12.239Z,15.25
2018-07-30T04:48:18.620Z,15.29
2018-07-30T04:49:25.119Z,15.33
2018-07-30T04:50:31.426Z,15.34
2018-07-30T04:51:37.834Z,15.35
2018-07-30T04:52:44.249Z,15.37
2018-07-30T04:53:50.639Z,15.39
2018-07-30T04:54:57.042Z,15.43
2018-07-30T04:56:03.453Z,15.49
2018-07-30T04:57:09.854Z,15.59
2018-07-30T04:58:16.266Z,15.71
2018-07-30T04:59:22.680Z,15.79
2018-07-30T05:00:29.088Z,15.83
2018-07-30T05:01:35.499Z,15.88
2018-07-30T05:02:41.903Z,15.93
2018-07-30T05:03:48.379Z,15.99
2018-07-30T05:04:55.248Z,16.01
2018-07-30T05:06:01.169Z,16.03
2018-07-30T05:07:07.578Z,16.03
2018-07-30T05:08:15.013Z,16.07
2018-07-30T05:09:20.548Z,16.08
2018-07-30T05:10:26.854Z,16.08
2018-07-30T05:11:33.774Z,16.09
2018-07-30T05:12:39.716Z,16.10
2018-07-30T05:13:46.131Z,16.13
2018-07-30T05:14:52.577Z,16.16
2018-07-30T05:15:58.992Z,16.19
2018-07-30T05:17:05.411Z,16.23
2018-07-30T05:18:11.867Z,16.28
2018-07-30T05:19:18.336Z,16.31
2018-07-30T05:20:25.202Z,16.34
2018-07-30T05:21:31.157Z,16.37
2018-07-30T05:22:37.577Z,16.39
2018-07-30T05:23:44.026Z,16.43
2018-07-30T05:24:50.473Z,16.48
2018-07-30T05:25:56.910Z,16.52
2018-07-30T05:27:03.346Z,16.56
2018-07-30T05:28:09.794Z,16.61
2018-07-30T05:29:16.252Z,16.66
2018-07-30T05:30:22.689Z,16.75
2018-07-30T05:31:29.644Z,16.86
2018-07-30T05:32:35.622Z,16.95
2018-07-30T05:33:42.042Z,16.97
2018-07-30T05:34:48.514Z,17.00
2018-07-30T05:35:54.996Z,17.05
2018-07-30T05:37:01.416Z,17.09
2018-07-30T05:38:07.856Z,17.17
2018-07-30T05:39:14.326Z,17.20
2018-07-30T05:40:20.775Z,17.21
2018-07-30T05:41:27.237Z,17.23
2018-07-30T05:42:34.277Z,17.24
2018-07-30T05:43:40.282Z,17.26
2018-07-30T05:44:46.632Z,17.31
2018-07-30T05:45:53.099Z,17.35
2018-07-30T05:46:59.585Z,17.38
2018-07-30T05:48:06.020Z,17.39
2018-07-30T05:49:13.005Z,17.44
2018-07-30T05:50:19.468Z,17.49
2018-07-30T05:51:25.447Z,17.56
2018-07-30T05:52:31.928Z,17.69
2018-07-30T05:53:38.399Z,17.74
2018-07-30T05:54:44.883Z,17.78
2018-07-30T05:55:52.358Z,17.84
2018-07-30T05:56:57.842Z,17.90
2018-07-30T05:58:04.320Z,17.95
2018-07-30T05:59:11.303Z,18.00
2018-07-30T06:00:17.288Z,18.03
2018-07-30T06:01:23.782Z,18.10
2018-07-30T06:02:31.261Z,18.17
2018-07-30T06:03:36.769Z,18.26
2018-07-30T06:04:43.262Z,18.35
2018-07-30T06:05:50.744Z,18.43
2018-07-30T06:06:56.255Z,18.57
2018-07-30T06:08:02.733Z,18.72
2018-07-30T06:09:09.241Z,18.81
2018-07-30T06:10:15.759Z,18.88
2018-07-30T06:11:22.245Z,18.97
2018-07-30T06:12:28.753Z,19.04
2018-07-30T06:13:35.267Z,19.04
2018-07-30T06:14:41.785Z,19.07
2018-07-30T06:15:48.296Z,19.09
2018-07-30T06:16:54.808Z,19.12
2018-07-30T06:18:01.825Z,19.21
2018-07-30T06:19:07.857Z,19.27
2018-07-30T06:20:14.403Z,19.30
2018-07-30T06:21:20.906Z,19.31
2018-07-30T06:22:27.415Z,19.36
2018-07-30T06:23:33.950Z,19.43
2018-07-30T06:24:40.484Z,19.48
2018-07-30T06:25:47.007Z,19.63
2018-07-30T06:26:53.548Z,19.77
2018-07-30T06:28:00.075Z,19.86
2018-07-30T06:29:06.611Z,19.91
2018-07-30T06:30:13.160Z,19.98
2018-07-30T06:31:19.692Z,20.10
2018-07-30T06:32:26.238Z,20.11
2018-07-30T06:33:32.776Z,20.14
2018-07-30T06:34:39.332Z,20.20
2018-07-30T06:35:45.887Z,20.31
2018-07-30T06:36:52.434Z,20.52
2018-07-30T06:37:58.997Z,20.60
2018-07-30T06:39:05.555Z,20.74
2018-07-30T06:40:12.107Z,20.88
2018-07-30T06:41:18.677Z,21.01
2018-07-30T06:42:25.240Z,21.12
2018-07-30T06:43:31.802Z,21.19
2018-07-30T06:44:38.370Z,21.20
2018-07-30T06:45:44.948Z,21.20
2018-07-30T06:46:51.518Z,21.21
2018-07-30T06:47:58.624Z,21.13
2018-07-30T06:49:04.685Z,21.11
2018-07-30T06:50:11.276Z,21.11
2018-07-30T06:51:17.853Z,21.13
2018-07-30T06:52:24.449Z,21.19
2018-07-30T06:53:31.040Z,21.21
2018-07-30T06:54:37.638Z,21.26
2018-07-30T06:55:44.229Z,21.34
2018-07-30T06:56:51.313Z,21.38
2018-07-30T06:57:57.404Z,21.38
2018-07-30T06:59:04.506Z,21.37
2018-07-30T07:00:10.624Z,21.37
2018-07-30T07:01:17.234Z,21.38
2018-07-30T07:02:23.845Z,21.45
2018-07-30T07:03:30.936Z,21.59
2018-07-30T07:04:37.066Z,21.70
2018-07-30T07:05:43.715Z,21.75
2018-07-30T07:06:50.293Z,21.77
2018-07-30T07:07:56.936Z,21.79
2018-07-30T07:09:03.545Z,21.82
2018-07-30T07:10:10.278Z,21.88
2018-07-30T07:11:16.816Z,22.06
2018-07-30T07:12:23.440Z,22.23
2018-07-30T07:13:30.078Z,22.31
2018-07-30T07:14:37.707Z,22.38
2018-07-30T07:15:43.353Z,22.42
2018-07-30T07:16:50.069Z,22.42
2018-07-30T07:17:56.655Z,22.43
2018-07-30T07:19:03.290Z,22.48
2018-07-30T07:20:09.956Z,22.57
2018-07-30T07:21:16.665Z,22.64
2018-07-30T07:22:23.274Z,22.63
2018-07-30T07:23:30.450Z,22.61
2018-07-30T07:24:37.612Z,22.60
2018-07-30T07:25:43.267Z,22.71
2018-07-30T07:26:49.957Z,22.85
2018-07-30T07:27:56.700Z,22.88
2018-07-30T07:29:03.300Z,22.88
2018-07-30T07:30:09.980Z,22.92
2018-07-30T07:31:16.658Z,22.98
2018-07-30T07:32:23.346Z,23.14
2018-07-30T07:33:30.052Z,23.26
2018-07-30T07:34:36.726Z,23.28
2018-07-30T07:35:43.431Z,23.28
2018-07-30T07:36:50.116Z,23.26
2018-07-30T07:37:56.814Z,23.25
2018-07-30T07:39:03.511Z,23.24
2018-07-30T07:40:10.300Z,23.23
2018-07-30T07:41:16.905Z,23.29
2018-07-30T07:42:23.613Z,23.43
2018-07-30T07:43:30.314Z,23.58
2018-07-30T07:44:37.061Z,23.73
2018-07-30T07:45:43.716Z,23.85
2018-07-30T07:46:50.437Z,24.04
2018-07-30T07:47:57.138Z,24.21
2018-07-30T07:49:03.864Z,24.35
2018-07-30T07:50:10.679Z,24.49
2018-07-30T07:51:17.293Z,24.60
2018-07-30T07:52:24.014Z,24.69
2018-07-30T07:53:30.728Z,24.75
2018-07-30T07:54:37.459Z,24.80
2018-07-30T07:55:44.173Z,24.81
2018-07-30T07:56:50.964Z,24.84
2018-07-30T07:57:57.623Z,24.92
2018-07-30T07:59:04.378Z,25.01
2018-07-30T08:00:11.104Z,25.08
2018-07-30T08:01:17.830Z,25.13
2018-07-30T08:02:24.573Z,25.15
2018-07-30T08:03:32.342Z,25.18
2018-07-30T08:04:38.070Z,25.21
2018-07-30T08:05:44.801Z,25.25
2018-07-30T08:06:51.556Z,25.27
2018-07-30T08:07:58.303Z,25.26
2018-07-30T08:09:05.063Z,25.30
2018-07-30T08:10:11.807Z,25.34
2018-07-30T08:11:18.557Z,25.45
2018-07-30T08:12:25.326Z,25.49
2018-07-30T08:13:32.071Z,25.52
2018-07-30T08:14:38.828Z,25.57
2018-07-30T08:15:45.580Z,25.59
2018-07-30T08:16:52.403Z,25.63
2018-07-30T08:17:59.126Z,25.66
2018-07-30T08:19:05.956Z,25.70
2018-07-30T08:20:12.674Z,25.71
2018-07-30T08:21:19.446Z,25.71
2018-07-30T08:22:26.227Z,25.73
2018-07-30T08:23:33.018Z,25.83
2018-07-30T08:24:39.802Z,25.88
2018-07-30T08:25:46.583Z,25.95
2018-07-30T08:26:53.375Z,26.03
2018-07-30T08:28:00.278Z,26.06
2018-07-30T08:29:07.513Z,26.08
2018-07-30T08:30:13.779Z,26.08
2018-07-30T08:31:20.578Z,26.12
2018-07-30T08:32:27.380Z,26.16
2018-07-30T08:33:34.288Z,26.20
2018-07-30T08:34:40.983Z,26.27
2018-07-30T08:35:48.258Z,26.33
2018-07-30T08:36:54.619Z,26.37
2018-07-30T08:38:01.427Z,26.42
2018-07-30T08:39:08.246Z,26.44
2018-07-30T08:40:15.066Z,26.44
2018-07-30T08:41:21.863Z,26.43
2018-07-30T08:42:28.682Z,26.48
2018-07-30T08:43:35.509Z,26.53
2018-07-30T08:44:42.330Z,26.63
2018-07-30T08:45:49.147Z,26.72
2018-07-30T08:46:55.969Z,26.80
2018-07-30T08:48:02.802Z,26.88
2018-07-30T08:49:10.136Z,26.92
2018-07-30T08:50:16.469Z,27.00
2018-07-30T08:51:23.293Z,27.10
2018-07-30T08:52:30.147Z,27.24
2018-07-30T08:53:36.982Z,27.36
2018-07-30T08:54:43.823Z,27.39
2018-07-30T08:55:50.711Z,27.41
2018-07-30T08:56:57.515Z,27.46
2018-07-30T08:58:04.859Z,27.52
2018-07-30T08:59:11.205Z,27.60
2018-07-30T09:00:18.550Z,27.63
2018-07-30T09:01:24.926Z,27.64
2018-07-30T09:02:31.768Z,27.72
2018-07-30T09:03:38.646Z,27.78
2018-07-30T09:04:45.488Z,27.80
2018-07-30T09:05:52.372Z,27.84
2018-07-30T09:06:59.240Z,27.91
2018-07-30T09:08:06.109Z,27.94
2018-07-30T09:09:12.967Z,28.02
2018-07-30T09:10:19.833Z,28.06
2018-07-30T09:11:26.721Z,28.11
2018-07-30T09:12:33.594Z,28.20
2018-07-30T09:13:40.492Z,28.32
2018-07-30T09:14:47.360Z,28.43
2018-07-30T09:15:54.737Z,28.51
2018-07-30T09:17:01.128Z,28.60
2018-07-30T09:18:08.097Z,28.61
2018-07-30T09:19:14.902Z,28.71
2018-07-30T09:20:21.787Z,28.80
2018-07-30T09:21:28.692Z,28.96
2018-07-30T09:22:35.580Z,29.04
2018-07-30T09:23:42.476Z,29.09
2018-07-30T09:24:49.377Z,29.11
2018-07-30T09:25:56.276Z,29.15
2018-07-30T09:27:04.340Z,29.18
2018-07-30T09:28:10.081Z,29.27
2018-07-30T09:29:16.996Z,29.42
2018-07-30T09:30:23.897Z,29.48
2018-07-30T09:31:30.831Z,29.49
2018-07-30T09:32:37.771Z,29.52
2018-07-30T09:33:44.657Z,29.55
2018-07-30T09:34:51.573Z,29.64
2018-07-30T09:35:58.489Z,29.73
2018-07-30T09:37:05.428Z,29.83
2018-07-30T09:38:12.362Z,29.92
2018-07-30T09:39:19.343Z,30.06
2018-07-30T09:40:26.257Z,30.27
2018-07-30T09:41:33.214Z,30.48
2018-07-30T09:42:40.285Z,30.78
2018-07-30T09:43:47.154Z,31.09
2018-07-30T09:44:54.691Z,31.25
2018-07-30T09:46:01.111Z,31.47
2018-07-30T09:47:08.099Z,31.63
2018-07-30T09:48:15.083Z,31.51
2018-07-30T09:49:22.084Z,31.55
2018-07-30T09:50:29.098Z,31.66
2018-07-30T09:51:36.060Z,31.68
2018-07-30T09:52:43.065Z,31.72
2018-07-30T09:53:50.041Z,31.82
2018-07-30T09:54:57.046Z,31.95
2018-07-30T09:56:04.059Z,31.96
2018-07-30T09:57:11.009Z,31.93
2018-07-30T09:58:17.990Z,31.95
2018-07-30T09:59:24.976Z,31.82
2018-07-30T10:00:31.955Z,31.74
2018-07-30T10:01:38.925Z,31.64
2018-07-30T10:02:45.902Z,31.58
2018-07-30T10:03:52.872Z,31.46
2018-07-30T10:04:59.877Z,31.38
2018-07-30T10:06:06.837Z,31.43
2018-07-30T10:07:13.780Z,31.57
2018-07-30T10:08:20.751Z,31.63
2018-07-30T10:09:27.742Z,31.62
2018-07-30T10:10:34.712Z,31.63
2018-07-30T10:11:41.731Z,31.76
2018-07-30T10:12:48.671Z,31.85
2018-07-30T10:13:55.658Z,31.93
2018-07-30T10:15:02.633Z,31.94
2018-07-30T10:16:09.604Z,31.93
2018-07-30T10:17:16.578Z,31.94
2018-07-30T10:18:23.609Z,31.98
2018-07-30T10:19:30.540Z,32.02
2018-07-30T10:20:38.028Z,32.03
2018-07-30T10:21:44.509Z,31.99
2018-07-30T10:22:51.483Z,31.85
2018-07-30T10:23:58.509Z,31.81
2018-07-30T10:25:05.479Z,31.80
2018-07-30T10:26:12.453Z,31.81
2018-07-30T10:27:19.449Z,31.89
2018-07-30T10:28:26.428Z,31.90
2018-07-30T10:29:33.444Z,31.90
2018-07-30T10:30:40.492Z,31.92
2018-07-30T10:31:47.738Z,32.07
2018-07-30T10:32:54.428Z,32.20
2018-07-30T10:34:01.428Z,32.28
2018-07-30T10:35:08.435Z,32.34
2018-07-30T10:36:15.420Z,32.30
2018-07-30T10:37:22.934Z,32.31
2018-07-30T10:38:29.449Z,32.44
2018-07-30T10:39:36.453Z,32.52
2018-07-30T10:40:43.459Z,32.57
2018-07-30T10:41:50.964Z,32.53
2018-07-30T10:42:57.465Z,32.51
2018-07-30T10:44:04.481Z,32.43
2018-07-30T10:45:11.500Z,32.43
2018-07-30T10:46:18.553Z,32.44
2018-07-30T10:47:25.520Z,32.56
2018-07-30T10:48:32.536Z,32.56
2018-07-30T10:49:39.560Z,32.69
2018-07-30T10:50:46.562Z,32.75
2018-07-30T10:51:53.586Z,32.87
2018-07-30T10:53:00.600Z,32.90
2018-07-30T10:54:07.802Z,32.86
2018-07-30T10:55:14.632Z,32.77
2018-07-30T10:56:22.130Z,32.80
2018-07-30T10:57:28.669Z,33.05
2018-07-30T10:58:35.673Z,33.00
2018-07-30T10:59:42.699Z,33.17
2018-07-30T11:00:49.729Z,33.22
2018-07-30T11:01:56.751Z,33.19
2018-07-30T11:03:03.772Z,33.30
2018-07-30T11:04:10.811Z,33.51
2018-07-30T11:05:17.835Z,33.50
2018-07-30T11:06:24.856Z,33.44
2018-07-30T11:07:31.872Z,33.40
2018-07-30T11:08:38.904Z,33.50
2018-07-30T11:09:46.034Z,33.53
2018-07-30T11:10:52.958Z,33.43
2018-07-30T11:11:59.983Z,33.51
2018-07-30T11:13:07.011Z,33.53
2018-07-30T11:14:14.059Z,33.51
2018-07-30T11:15:21.144Z,33.41
2018-07-30T11:16:28.282Z,33.40
2018-07-30T11:17:35.509Z,33.52
2018-07-30T11:18:42.819Z,33.46
2018-07-30T11:19:50.209Z,33.46
2018-07-30T11:20:57.653Z,33.39
2018-07-30T11:22:05.170Z,33.49
2018-07-30T11:23:13.258Z,33.57
2018-07-30T11:24:20.367Z,33.64
2018-07-30T11:25:28.111Z,33.70
2018-07-30T11:26:35.741Z,33.87
2018-07-30T11:27:43.491Z,34.14
2018-07-30T11:28:51.367Z,34.28
2018-07-30T11:30:00.095Z,34.35
2018-07-30T11:31:06.940Z,34.33
2018-07-30T11:32:14.797Z,34.18
2018-07-30T11:33:22.703Z,34.08
2018-07-30T11:34:30.632Z,34.03
2018-07-30T11:35:38.585Z,34.21
2018-07-30T11:36:46.563Z,34.23
2018-07-30T11:37:54.563Z,34.22
2018-07-30T11:39:02.576Z,34.22
2018-07-30T11:40:10.619Z,34.14
2018-07-30T11:41:18.676Z,34.12
2018-07-30T11:42:26.761Z,34.15
2018-07-30T11:43:34.850Z,34.27
2018-07-30T11:44:42.959Z,34.34
2018-07-30T11:45:51.083Z,34.52
2018-07-30T11:46:59.207Z,34.51
2018-07-30T11:48:07.359Z,34.45
2018-07-30T11:49:15.507Z,34.52
2018-07-30T11:50:23.679Z,34.60
2018-07-30T11:51:31.853Z,34.72
2018-07-30T11:52:40.023Z,34.62
2018-07-30T11:53:48.213Z,34.59
2018-07-30T11:54:56.403Z,34.64
2018-07-30T11:56:04.611Z,34.55
2018-07-30T11:57:12.814Z,34.44
2018-07-30T11:58:21.033Z,34.39
2018-07-30T11:59:29.275Z,34.39
2018-07-30T12:00:37.529Z,34.43
2018-07-30T12:01:45.851Z,34.52
2018-07-30T12:02:54.077Z,34.69
2018-07-30T12:04:02.390Z,34.79
2018-07-30T12:05:10.695Z,35.04
2018-07-30T12:06:19.017Z,35.22
2018-07-30T12:07:27.319Z,35.37
2018-07-30T12:08:35.622Z,35.50
2018-07-30T12:09:43.926Z,35.52
2018-07-30T12:10:52.245Z,35.40
2018-07-30T12:12:00.493Z,35.30
2018-07-30T12:13:08.642Z,35.09
2018-07-30T12:14:16.809Z,34.98
2018-07-30T12:15:25.010Z,35.02
2018-07-30T12:16:33.254Z,35.01
2018-07-30T12:17:41.505Z,35.16
2018-07-30T12:18:49.794Z,35.30
2018-07-30T12:19:58.100Z,35.50
2018-07-30T12:21:06.426Z,35.92
2018-07-30T12:22:14.788Z,36.08
2018-07-30T12:23:23.111Z,35.89
2018-07-30T12:24:31.491Z,36.06
2018-07-30T12:25:39.884Z,35.99
2018-07-30T12:26:48.286Z,36.24
2018-07-30T12:27:56.680Z,36.29
2018-07-30T12:29:05.085Z,36.34
2018-07-30T12:30:13.555Z,36.37
2018-07-30T12:31:21.923Z,36.41
2018-07-30T12:32:30.320Z,36.44
2018-07-30T12:33:40.114Z,36.73
2018-07-30T12:34:47.126Z,36.91
2018-07-30T12:35:55.485Z,37.00
2018-07-30T12:37:03.733Z,36.54
2018-07-30T12:38:11.939Z,36.11
2018-07-30T12:39:20.035Z,35.89
2018-07-30T12:40:28.121Z,35.79
2018-07-30T12:41:36.219Z,35.74
2018-07-30T12:42:44.372Z,35.71
2018-07-30T12:43:52.533Z,35.77
2018-07-30T12:45:01.762Z,36.10
2018-07-30T12:46:08.959Z,36.13
2018-07-30T12:47:17.199Z,36.16
2018-07-30T12:48:25.460Z,36.14
2018-07-30T12:49:33.737Z,36.08
2018-07-30T12:50:41.947Z,35.82
2018-07-30T12:51:50.053Z,35.63
2018-07-30T12:52:58.103Z,35.36
2018-07-30T12:54:06.278Z,35.32
2018-07-30T12:55:14.301Z,35.64
2018-07-30T12:56:22.494Z,36.06
2018-07-30T12:57:30.707Z,36.46
2018-07-30T12:58:38.970Z,36.67
2018-07-30T12:59:47.228Z,36.58
2018-07-30T13:00:55.411Z,36.38
2018-07-30T13:02:03.541Z,36.20
2018-07-30T13:03:11.753Z,36.17
2018-07-30T13:04:20.069Z,36.30
2018-07-30T13:05:28.120Z,36.49
2018-07-30T13:06:36.380Z,36.55
2018-07-30T13:07:44.670Z,36.68
2018-07-30T13:08:53.005Z,36.82
2018-07-30T13:10:01.365Z,37.01
2018-07-30T13:11:09.758Z,37.09
2018-07-30T13:12:18.083Z,37.29
2018-07-30T13:13:26.450Z,37.42
2018-07-30T13:14:34.822Z,37.49
2018-07-30T13:15:43.200Z,37.62
2018-07-30T13:16:51.552Z,37.67
2018-07-30T13:17:59.828Z,37.62
2018-07-30T13:19:08.097Z,37.30
2018-07-30T13:20:16.325Z,37.31
2018-07-30T13:21:24.969Z,37.45
2018-07-30T13:22:32.743Z,37.61
2018-07-30T13:23:40.938Z,37.59
2018-07-30T13:24:49.307Z,37.57
2018-07-30T13:25:57.285Z,37.58
2018-07-30T13:27:05.460Z,37.78
2018-07-30T13:28:13.689Z,37.55
2018-07-30T13:29:21.944Z,37.68
2018-07-30T13:30:30.219Z,37.84
2018-07-30T13:31:38.526Z,38.04
2018-07-30T13:32:46.876Z,38.27
2018-07-30T13:33:55.201Z,38.41
2018-07-30T13:35:03.857Z,38.28
2018-07-30T13:36:11.953Z,38.20
2018-07-30T13:37:20.820Z,38.40
2018-07-30T13:38:28.760Z,38.45
2018-07-30T13:39:37.153Z,38.47
2018-07-30T13:40:45.660Z,38.68
2018-07-30T13:41:53.992Z,38.71
2018-07-30T13:43:02.395Z,38.64
2018-07-30T13:44:10.815Z,38.52
2018-07-30T13:45:19.235Z,38.53
2018-07-30T13:46:27.699Z,38.08
2018-07-30T13:47:36.066Z,37.98
2018-07-30T13:48:44.479Z,38.02
2018-07-30T13:49:52.896Z,38.05
2018-07-30T13:51:01.320Z,37.86
2018-07-30T13:52:09.700Z,37.61
2018-07-30T13:53:18.597Z,37.60
2018-07-30T13:54:26.579Z,37.70
2018-07-30T13:55:34.835Z,38.06
2018-07-30T13:56:43.174Z,38.07
2018-07-30T13:57:51.499Z,38.08
2018-07-30T13:58:59.805Z,38.35
2018-07-30T14:00:08.083Z,38.65
2018-07-30T14:01:16.371Z,38.75
2018-07-30T14:02:24.628Z,38.73
2018-07-30T14:03:32.904Z,38.45
2018-07-30T14:04:41.173Z,38.42
2018-07-30T14:05:49.470Z,38.52
2018-07-30T14:06:58.279Z,38.71
2018-07-30T14:08:06.049Z,38.46
2018-07-30T14:09:14.264Z,38.34
2018-07-30T14:10:22.420Z,38.43
2018-07-30T14:11:30.515Z,38.38
2018-07-30T14:12:38.562Z,38.12
2018-07-30T14:13:46.728Z,37.89
2018-07-30T14:14:54.446Z,37.88
2018-07-30T14:16:02.362Z,37.73
2018-07-30T14:17:10.251Z,37.51
2018-07-30T14:18:18.346Z,37.64
2018-07-30T14:19:26.066Z,37.58
2018-07-30T14:20:35.129Z,37.70
2018-07-30T14:21:41.905Z,37.64